Aviation Digital Data Service (ADDS)

Output produced by METARs form (0505 UTC 21 September 2017)
found at http://www.aviationweather.gov/adds/metars/
 
TAF FOOG 202300Z 2100/2124 20010KT 8000 SCT008 BKN026 
     PROB40 
     TEMPO 2100/2108 3500 DZ BKN006 OVC023
       
FOOL 210430Z 19006KT 150V210 7000 -RA FEW005 SCT008 OVC030 25/24 Q1012 TEMPO 2000 RA
TAF FOOL 202300Z 2100/2206 22008KT 9999 SCT010 BKN026 
     TEMPO 2101/2111 3000 RADZ BKN008 OVC023 
     PROB30 
     TEMPO 2118/2123 4000 RADZ BKN010 OVC026
       
TAF FOOG 202300Z 2100/2124 20010KT 8000 SCT008 BKN026 
     PROB40 
     TEMPO 2100/2108 3500 DZ BKN006 OVC023
       
FOOL 210430Z 19006KT 150V210 7000 -RA FEW005 SCT008 OVC030 25/24 Q1012 TEMPO 2000 RA
TAF FOOL 202300Z 2100/2206 22008KT 9999 SCT010 BKN026 
     TEMPO 2101/2111 3000 RADZ BKN008 OVC023 
     PROB30 
     TEMPO 2118/2123 4000 RADZ BKN010 OVC026
       
FOOL 210430Z 19006KT 150V210 7000 -RA FEW005 SCT008 OVC030 25/24 Q1012 TEMPO 2000 RA
TAF FOOL 202300Z 2100/2206 22008KT 9999 SCT010 BKN026 
     TEMPO 2101/2111 3000 RADZ BKN008 OVC023 
     PROB30 
     TEMPO 2118/2123 4000 RADZ BKN010 OVC026
       
TAF FOOG 202300Z 2100/2124 20010KT 8000 SCT008 BKN026 
     PROB40 
     TEMPO 2100/2108 3500 DZ BKN006 OVC023